sensor_id;sensor_type;location;lat;lon;timestamp;temperature;humidity
78886;DHT22;68269;52.514;5.722;2023-07-13T00:02:31;20.20;58.60
78886;DHT22;68269;52.514;5.722;2023-07-13T00:05:01;20.10;58.70
78886;DHT22;68269;52.514;5.722;2023-07-13T00:07:30;20.10;58.80
78886;DHT22;68269;52.514;5.722;2023-07-13T00:10:00;20.00;58.90
78886;DHT22;68269;52.514;5.722;2023-07-13T00:12:34;20.00;59.00
78886;DHT22;68269;52.514;5.722;2023-07-13T00:15:17;20.00;59.10
78886;DHT22;68269;52.514;5.722;2023-07-13T00:17:49;20.00;59.20
78886;DHT22;68269;52.514;5.722;2023-07-13T00:20:20;20.00;59.20
78886;DHT22;68269;52.514;5.722;2023-07-13T00:22:51;20.00;59.30
78886;DHT22;68269;52.514;5.722;2023-07-13T00:25:21;20.00;59.40
78886;DHT22;68269;52.514;5.722;2023-07-13T00:27:54;20.00;59.40
78886;DHT22;68269;52.514;5.722;2023-07-13T00:30:26;20.00;59.30
78886;DHT22;68269;52.514;5.722;2023-07-13T00:32:58;20.00;59.40
78886;DHT22;68269;52.514;5.722;2023-07-13T00:35:30;19.90;59.40
78886;DHT22;68269;52.514;5.722;2023-07-13T00:38:00;19.90;59.60
78886;DHT22;68269;52.514;5.722;2023-07-13T00:40:29;20.00;59.60
78886;DHT22;68269;52.514;5.722;2023-07-13T00:42:59;19.90;59.70
78886;DHT22;68269;52.514;5.722;2023-07-13T00:48:33;19.90;59.90
78886;DHT22;68269;52.514;5.722;2023-07-13T00:51:03;19.90;59.90
78886;DHT22;68269;52.514;5.722;2023-07-13T00:53:33;19.90;60.00
78886;DHT22;68269;52.514;5.722;2023-07-13T00:56:03;19.90;60.00
78886;DHT22;68269;52.514;5.722;2023-07-13T00:58:33;19.90;60.10
78886;DHT22;68269;52.514;5.722;2023-07-13T01:01:04;19.80;60.20
78886;DHT22;68269;52.514;5.722;2023-07-13T01:03:36;19.80;60.20
78886;DHT22;68269;52.514;5.722;2023-07-13T01:06:07;19.80;60.30
78886;DHT22;68269;52.514;5.722;2023-07-13T01:08:37;19.80;60.30
78886;DHT22;68269;52.514;5.722;2023-07-13T01:11:06;19.70;60.40
78886;DHT22;68269;52.514;5.722;2023-07-13T01:13:37;19.70;60.50
78886;DHT22;68269;52.514;5.722;2023-07-13T01:16:24;19.70;60.50
78886;DHT22;68269;52.514;5.722;2023-07-13T01:18:56;19.70;60.70
78886;DHT22;68269;52.514;5.722;2023-07-13T01:21:32;19.70;60.60
78886;DHT22;68269;52.514;5.722;2023-07-13T01:24:02;19.70;60.60
78886;DHT22;68269;52.514;5.722;2023-07-13T01:26:32;19.70;60.60
78886;DHT22;68269;52.514;5.722;2023-07-13T01:29:01;19.70;60.70
78886;DHT22;68269;52.514;5.722;2023-07-13T01:31:31;19.70;60.70
78886;DHT22;68269;52.514;5.722;2023-07-13T01:34:01;19.70;60.80
78886;DHT22;68269;52.514;5.722;2023-07-13T01:36:33;19.70;60.80
78886;DHT22;68269;52.514;5.722;2023-07-13T01:39:03;19.70;60.80
78886;DHT22;68269;52.514;5.722;2023-07-13T01:41:32;19.70;60.80
78886;DHT22;68269;52.514;5.722;2023-07-13T01:44:02;19.70;60.90
78886;DHT22;68269;52.514;5.722;2023-07-13T01:46:31;19.70;60.90
78886;DHT22;68269;52.514;5.722;2023-07-13T01:49:00;19.70;61.00
78886;DHT22;68269;52.514;5.722;2023-07-13T01:51:30;19.60;61.00
78886;DHT22;68269;52.514;5.722;2023-07-13T01:54:02;19.60;61.10
78886;DHT22;68269;52.514;5.722;2023-07-13T01:56:31;19.50;61.10
78886;DHT22;68269;52.514;5.722;2023-07-13T01:59:00;19.50;61.10
78886;DHT22;68269;52.514;5.722;2023-07-13T02:01:29;19.50;61.20
78886;DHT22;68269;52.514;5.722;2023-07-13T02:03:59;19.50;61.20
78886;DHT22;68269;52.514;5.722;2023-07-13T02:06:32;19.50;61.30
78886;DHT22;68269;52.514;5.722;2023-07-13T02:09:04;19.50;61.30
78886;DHT22;68269;52.514;5.722;2023-07-13T02:11:34;19.50;61.40
78886;DHT22;68269;52.514;5.722;2023-07-13T02:14:03;19.50;61.40
78886;DHT22;68269;52.514;5.722;2023-07-13T02:16:33;19.50;61.40
78886;DHT22;68269;52.514;5.722;2023-07-13T02:19:02;19.50;61.40
78886;DHT22;68269;52.514;5.722;2023-07-13T02:21:32;19.50;61.50
78886;DHT22;68269;52.514;5.722;2023-07-13T02:24:05;19.50;61.50
78886;DHT22;68269;52.514;5.722;2023-07-13T02:26:35;19.50;61.60
78886;DHT22;68269;52.514;5.722;2023-07-13T02:29:04;19.50;61.60
78886;DHT22;68269;52.514;5.722;2023-07-13T02:31:33;19.50;61.60
78886;DHT22;68269;52.514;5.722;2023-07-13T02:34:03;19.50;61.60
78886;DHT22;68269;52.514;5.722;2023-07-13T02:36:33;19.50;61.60
78886;DHT22;68269;52.514;5.722;2023-07-13T02:39:05;19.40;61.70
78886;DHT22;68269;52.514;5.722;2023-07-13T02:41:36;19.40;61.70
78886;DHT22;68269;52.514;5.722;2023-07-13T02:44:05;19.40;61.70
78886;DHT22;68269;52.514;5.722;2023-07-13T02:46:36;19.40;61.70
78886;DHT22;68269;52.514;5.722;2023-07-13T02:49:06;19.40;61.80
78886;DHT22;68269;52.514;5.722;2023-07-13T02:51:35;19.40;61.80
78886;DHT22;68269;52.514;5.722;2023-07-13T02:54:08;19.40;61.80
78886;DHT22;68269;52.514;5.722;2023-07-13T02:56:40;19.30;61.80
78886;DHT22;68269;52.514;5.722;2023-07-13T02:59:10;19.30;61.80
78886;DHT22;68269;52.514;5.722;2023-07-13T03:01:39;19.30;61.80
78886;DHT22;68269;52.514;5.722;2023-07-13T03:04:09;19.30;61.80
78886;DHT22;68269;52.514;5.722;2023-07-13T03:06:38;19.20;61.90
78886;DHT22;68269;52.514;5.722;2023-07-13T03:09:11;19.20;61.90
78886;DHT22;68269;52.514;5.722;2023-07-13T03:11:45;19.20;61.90
78886;DHT22;68269;52.514;5.722;2023-07-13T03:14:25;19.10;61.90
78886;DHT22;68269;52.514;5.722;2023-07-13T03:16:55;19.10;61.90
78886;DHT22;68269;52.514;5.722;2023-07-13T03:19:27;19.10;61.90
78886;DHT22;68269;52.514;5.722;2023-07-13T03:21:57;19.10;62.00
78886;DHT22;68269;52.514;5.722;2023-07-13T03:24:29;19.10;62.00
78886;DHT22;68269;52.514;5.722;2023-07-13T03:26:58;19.00;62.10
78886;DHT22;68269;52.514;5.722;2023-07-13T03:29:28;19.00;62.00
78886;DHT22;68269;52.514;5.722;2023-07-13T03:31:57;19.00;62.00
78886;DHT22;68269;52.514;5.722;2023-07-13T03:34:26;19.00;62.10
78886;DHT22;68269;52.514;5.722;2023-07-13T03:36:57;19.00;62.10
78886;DHT22;68269;52.514;5.722;2023-07-13T03:39:28;19.00;62.10
78886;DHT22;68269;52.514;5.722;2023-07-13T03:41:58;19.00;62.10
78886;DHT22;68269;52.514;5.722;2023-07-13T03:44:28;18.90;62.00
78886;DHT22;68269;52.514;5.722;2023-07-13T03:46:57;18.90;62.00
78886;DHT22;68269;52.514;5.722;2023-07-13T03:49:27;18.90;62.00
78886;DHT22;68269;52.514;5.722;2023-07-13T03:51:56;18.90;62.10
78886;DHT22;68269;52.514;5.722;2023-07-13T03:54:28;18.90;62.10
78886;DHT22;68269;52.514;5.722;2023-07-13T03:56:57;19.00;62.20
78886;DHT22;68269;52.514;5.722;2023-07-13T03:59:28;19.00;62.20
78886;DHT22;68269;52.514;5.722;2023-07-13T04:01:57;19.00;62.20
78886;DHT22;68269;52.514;5.722;2023-07-13T04:04:27;19.00;62.30
78886;DHT22;68269;52.514;5.722;2023-07-13T04:06:57;18.90;62.30
78886;DHT22;68269;52.514;5.722;2023-07-13T04:09:29;18.90;62.30
78886;DHT22;68269;52.514;5.722;2023-07-13T04:11:59;18.90;62.40
78886;DHT22;68269;52.514;5.722;2023-07-13T04:14:28;18.90;62.40
78886;DHT22;68269;52.514;5.722;2023-07-13T04:16:57;18.90;62.50
78886;DHT22;68269;52.514;5.722;2023-07-13T04:19:27;18.90;62.50
78886;DHT22;68269;52.514;5.722;2023-07-13T04:21:56;18.90;62.50
78886;DHT22;68269;52.514;5.722;2023-07-13T04:24:26;18.90;62.60
78886;DHT22;68269;52.514;5.722;2023-07-13T04:26:58;18.90;62.60
78886;DHT22;68269;52.514;5.722;2023-07-13T04:29:29;18.90;62.60
78886;DHT22;68269;52.514;5.722;2023-07-13T04:31:58;18.90;62.70
78886;DHT22;68269;52.514;5.722;2023-07-13T04:34:28;18.90;62.70
78886;DHT22;68269;52.514;5.722;2023-07-13T04:36:57;18.80;62.80
78886;DHT22;68269;52.514;5.722;2023-07-13T04:39:27;18.80;62.80
78886;DHT22;68269;52.514;5.722;2023-07-13T04:41:59;18.80;62.90
78886;DHT22;68269;52.514;5.722;2023-07-13T04:44:28;18.80;62.90
78886;DHT22;68269;52.514;5.722;2023-07-13T04:46:57;18.80;62.90
78886;DHT22;68269;52.514;5.722;2023-07-13T04:49:27;18.80;62.90
78886;DHT22;68269;52.514;5.722;2023-07-13T04:51:56;18.90;62.90
78886;DHT22;68269;52.514;5.722;2023-07-13T04:54:26;18.90;62.90
78886;DHT22;68269;52.514;5.722;2023-07-13T04:56:57;18.90;62.90
78886;DHT22;68269;52.514;5.722;2023-07-13T04:59:27;18.90;63.00
78886;DHT22;68269;52.514;5.722;2023-07-13T05:01:56;18.90;63.00
78886;DHT22;68269;52.514;5.722;2023-07-13T05:04:26;18.90;63.00
78886;DHT22;68269;52.514;5.722;2023-07-13T05:06:55;18.90;63.00
78886;DHT22;68269;52.514;5.722;2023-07-13T05:09:24;18.90;63.10
78886;DHT22;68269;52.514;5.722;2023-07-13T05:11:53;18.90;63.10
78886;DHT22;68269;52.514;5.722;2023-07-13T05:14:25;18.90;63.10
78886;DHT22;68269;52.514;5.722;2023-07-13T05:16:54;18.90;63.20
78886;DHT22;68269;52.514;5.722;2023-07-13T05:19:24;19.00;63.20
78886;DHT22;68269;52.514;5.722;2023-07-13T05:21:53;19.00;63.10
78886;DHT22;68269;52.514;5.722;2023-07-13T05:24:22;19.00;63.20
78886;DHT22;68269;52.514;5.722;2023-07-13T05:26:52;19.00;63.20
78886;DHT22;68269;52.514;5.722;2023-07-13T05:29:22;18.90;63.30
78886;DHT22;68269;52.514;5.722;2023-07-13T05:31:54;19.00;63.40
78886;DHT22;68269;52.514;5.722;2023-07-13T05:34:24;19.00;63.40
78886;DHT22;68269;52.514;5.722;2023-07-13T05:36:53;19.10;63.30
78886;DHT22;68269;52.514;5.722;2023-07-13T05:39:22;19.10;63.40
78886;DHT22;68269;52.514;5.722;2023-07-13T05:41:52;19.10;63.40
78886;DHT22;68269;52.514;5.722;2023-07-13T05:44:21;19.20;63.40
78886;DHT22;68269;52.514;5.722;2023-07-13T05:46:53;19.20;63.40
78886;DHT22;68269;52.514;5.722;2023-07-13T05:49:23;19.20;63.40
78886;DHT22;68269;52.514;5.722;2023-07-13T05:51:52;19.30;63.40
78886;DHT22;68269;52.514;5.722;2023-07-13T05:54:22;19.30;63.50
78886;DHT22;68269;52.514;5.722;2023-07-13T05:56:51;19.30;63.50
78886;DHT22;68269;52.514;5.722;2023-07-13T05:59:20;19.30;63.50
78886;DHT22;68269;52.514;5.722;2023-07-13T06:01:50;19.30;63.50
78886;DHT22;68269;52.514;5.722;2023-07-13T06:04:22;19.30;63.50
78886;DHT22;68269;52.514;5.722;2023-07-13T06:06:51;19.40;63.60
78886;DHT22;68269;52.514;5.722;2023-07-13T06:09:20;19.30;63.60
78886;DHT22;68269;52.514;5.722;2023-07-13T06:11:50;19.40;63.60
78886;DHT22;68269;52.514;5.722;2023-07-13T06:14:19;19.40;63.60
78886;DHT22;68269;52.514;5.722;2023-07-13T06:16:48;19.40;63.70
78886;DHT22;68269;52.514;5.722;2023-07-13T06:19:20;19.50;63.70
78886;DHT22;68269;52.514;5.722;2023-07-13T06:21:50;19.40;63.70
78886;DHT22;68269;52.514;5.722;2023-07-13T06:24:19;19.50;63.80
78886;DHT22;68269;52.514;5.722;2023-07-13T06:26:48;19.40;63.80
78886;DHT22;68269;52.514;5.722;2023-07-13T06:29:17;19.50;63.80
78886;DHT22;68269;52.514;5.722;2023-07-13T06:31:47;19.50;63.90
78886;DHT22;68269;52.514;5.722;2023-07-13T06:34:16;19.50;64.00
78886;DHT22;68269;52.514;5.722;2023-07-13T06:36:48;19.50;64.00
78886;DHT22;68269;52.514;5.722;2023-07-13T06:39:17;19.50;64.00
78886;DHT22;68269;52.514;5.722;2023-07-13T06:41:46;19.50;64.00
78886;DHT22;68269;52.514;5.722;2023-07-13T06:44:18;19.60;64.00
78886;DHT22;68269;52.514;5.722;2023-07-13T06:46:47;19.70;64.00
78886;DHT22;68269;52.514;5.722;2023-07-13T06:49:16;19.70;64.10
78886;DHT22;68269;52.514;5.722;2023-07-13T06:51:48;19.70;64.10
78886;DHT22;68269;52.514;5.722;2023-07-13T06:54:17;19.80;64.10
78886;DHT22;68269;52.514;5.722;2023-07-13T06:56:47;19.80;64.20
78886;DHT22;68269;52.514;5.722;2023-07-13T06:59:16;19.80;64.20
78886;DHT22;68269;52.514;5.722;2023-07-13T07:01:45;19.80;64.30
78886;DHT22;68269;52.514;5.722;2023-07-13T07:04:15;19.90;64.30
78886;DHT22;68269;52.514;5.722;2023-07-13T07:06:44;19.90;64.20
78886;DHT22;68269;52.514;5.722;2023-07-13T07:09:16;20.00;64.20
78886;DHT22;68269;52.514;5.722;2023-07-13T07:11:45;20.00;64.30
78886;DHT22;68269;52.514;5.722;2023-07-13T07:14:15;20.00;64.20
78886;DHT22;68269;52.514;5.722;2023-07-13T07:16:44;20.00;64.30
78886;DHT22;68269;52.514;5.722;2023-07-13T07:19:13;20.00;64.40
78886;DHT22;68269;52.514;5.722;2023-07-13T07:21:43;20.00;64.40
78886;DHT22;68269;52.514;5.722;2023-07-13T07:24:12;20.00;64.40
78886;DHT22;68269;52.514;5.722;2023-07-13T07:26:44;20.00;64.30
78886;DHT22;68269;52.514;5.722;2023-07-13T07:29:13;20.10;64.30
78886;DHT22;68269;52.514;5.722;2023-07-13T07:31:43;20.10;64.30
78886;DHT22;68269;52.514;5.722;2023-07-13T07:34:12;20.20;64.10
78886;DHT22;68269;52.514;5.722;2023-07-13T07:36:41;20.30;64.10
78886;DHT22;68269;52.514;5.722;2023-07-13T07:39:11;20.30;64.10
78886;DHT22;68269;52.514;5.722;2023-07-13T07:41:40;20.30;64.10
78886;DHT22;68269;52.514;5.722;2023-07-13T07:44:12;20.30;64.10
78886;DHT22;68269;52.514;5.722;2023-07-13T07:46:41;20.30;64.10
78886;DHT22;68269;52.514;5.722;2023-07-13T07:49:11;20.40;64.00
78886;DHT22;68269;52.514;5.722;2023-07-13T07:51:40;20.40;64.00
78886;DHT22;68269;52.514;5.722;2023-07-13T07:54:09;20.50;64.00
78886;DHT22;68269;52.514;5.722;2023-07-13T07:56:39;20.50;64.00
78886;DHT22;68269;52.514;5.722;2023-07-13T07:59:09;20.50;64.10
78886;DHT22;68269;52.514;5.722;2023-07-13T08:01:41;20.50;64.10
78886;DHT22;68269;52.514;5.722;2023-07-13T08:04:12;20.40;64.40
78886;DHT22;68269;52.514;5.722;2023-07-13T08:06:41;20.30;64.60
78886;DHT22;68269;52.514;5.722;2023-07-13T08:09:10;20.00;64.70
78886;DHT22;68269;52.514;5.722;2023-07-13T08:11:40;19.90;64.80
78886;DHT22;68269;52.514;5.722;2023-07-13T08:14:09;19.70;64.90
78886;DHT22;68269;52.514;5.722;2023-07-13T08:16:41;19.50;64.90
78886;DHT22;68269;52.514;5.722;2023-07-13T08:19:10;19.40;64.90
78886;DHT22;68269;52.514;5.722;2023-07-13T08:21:40;19.20;65.00
78886;DHT22;68269;52.514;5.722;2023-07-13T08:24:10;19.20;65.00
78886;DHT22;68269;52.514;5.722;2023-07-13T08:26:39;19.20;65.00
78886;DHT22;68269;52.514;5.722;2023-07-13T08:29:08;19.20;65.00
78886;DHT22;68269;52.514;5.722;2023-07-13T08:31:38;19.30;65.00
78886;DHT22;68269;52.514;5.722;2023-07-13T08:34:10;19.30;65.00
78886;DHT22;68269;52.514;5.722;2023-07-13T08:36:41;19.40;65.00
78886;DHT22;68269;52.514;5.722;2023-07-13T08:39:10;19.40;65.00
78886;DHT22;68269;52.514;5.722;2023-07-13T08:41:40;19.40;65.00
78886;DHT22;68269;52.514;5.722;2023-07-13T08:44:36;19.40;65.10
78886;DHT22;68269;52.514;5.722;2023-07-13T08:47:09;19.40;65.10
78886;DHT22;68269;52.514;5.722;2023-07-13T08:49:44;19.40;65.10
78886;DHT22;68269;52.514;5.722;2023-07-13T08:52:21;19.30;65.20
78886;DHT22;68269;52.514;5.722;2023-07-13T08:54:55;19.40;65.10
78886;DHT22;68269;52.514;5.722;2023-07-13T08:57:31;19.40;65.10
78886;DHT22;68269;52.514;5.722;2023-07-13T09:00:02;19.40;65.10
78886;DHT22;68269;52.514;5.722;2023-07-13T09:02:41;19.50;65.00
78886;DHT22;68269;52.514;5.722;2023-07-13T09:05:18;19.50;65.10
78886;DHT22;68269;52.514;5.722;2023-07-13T09:08:04;19.50;65.10
78886;DHT22;68269;52.514;5.722;2023-07-13T09:10:43;19.50;65.20
78886;DHT22;68269;52.514;5.722;2023-07-13T09:13:22;19.50;65.10
78886;DHT22;68269;52.514;5.722;2023-07-13T09:15:53;19.50;65.10
78886;DHT22;68269;52.514;5.722;2023-07-13T09:18:27;19.60;65.00
78886;DHT22;68269;52.514;5.722;2023-07-13T09:21:02;19.70;65.00
78886;DHT22;68269;52.514;5.722;2023-07-13T09:23:33;19.70;65.00
78886;DHT22;68269;52.514;5.722;2023-07-13T09:26:06;19.90;64.90
78886;DHT22;68269;52.514;5.722;2023-07-13T09:28:40;20.00;64.90
78886;DHT22;68269;52.514;5.722;2023-07-13T09:31:14;20.20;64.80
78886;DHT22;68269;52.514;5.722;2023-07-13T09:33:44;20.30;64.70
78886;DHT22;68269;52.514;5.722;2023-07-13T09:36:22;20.30;64.80
78886;DHT22;68269;52.514;5.722;2023-07-13T09:38:55;20.30;64.90
78886;DHT22;68269;52.514;5.722;2023-07-13T09:41:31;20.30;64.90
78886;DHT22;68269;52.514;5.722;2023-07-13T09:44:08;20.20;64.90
78886;DHT22;68269;52.514;5.722;2023-07-13T09:46:42;20.10;64.90
78886;DHT22;68269;52.514;5.722;2023-07-13T09:49:12;20.10;65.00
78886;DHT22;68269;52.514;5.722;2023-07-13T09:51:45;20.00;65.10
78886;DHT22;68269;52.514;5.722;2023-07-13T09:54:24;19.90;65.10
78886;DHT22;68269;52.514;5.722;2023-07-13T09:56:55;19.70;65.10
78886;DHT22;68269;52.514;5.722;2023-07-13T09:59:29;19.60;65.20
78886;DHT22;68269;52.514;5.722;2023-07-13T10:01:59;19.50;65.10
78886;DHT22;68269;52.514;5.722;2023-07-13T10:04:33;19.50;65.10
78886;DHT22;68269;52.514;5.722;2023-07-13T10:07:11;19.50;65.00
78886;DHT22;68269;52.514;5.722;2023-07-13T10:09:41;19.50;64.90
78886;DHT22;68269;52.514;5.722;2023-07-13T10:12:14;19.50;64.90
78886;DHT22;68269;52.514;5.722;2023-07-13T10:14:45;19.50;64.90
78886;DHT22;68269;52.514;5.722;2023-07-13T10:17:14;19.50;64.80
78886;DHT22;68269;52.514;5.722;2023-07-13T10:19:48;19.70;64.80
78886;DHT22;68269;52.514;5.722;2023-07-13T10:22:25;19.90;64.70
78886;DHT22;68269;52.514;5.722;2023-07-13T10:24:56;20.00;64.50
78886;DHT22;68269;52.514;5.722;2023-07-13T10:27:31;20.10;64.40
78886;DHT22;68269;52.514;5.722;2023-07-13T10:30:09;20.30;64.20
78886;DHT22;68269;52.514;5.722;2023-07-13T10:32:42;20.50;64.10
78886;DHT22;68269;52.514;5.722;2023-07-13T10:35:12;20.50;64.20
78886;DHT22;68269;52.514;5.722;2023-07-13T10:37:49;20.60;64.30
78886;DHT22;68269;52.514;5.722;2023-07-13T10:40:23;20.60;64.40
78886;DHT22;68269;52.514;5.722;2023-07-13T10:42:57;20.60;64.40
78886;DHT22;68269;52.514;5.722;2023-07-13T10:45:35;20.60;64.40
78886;DHT22;68269;52.514;5.722;2023-07-13T10:48:05;20.80;64.30
78886;DHT22;68269;52.514;5.722;2023-07-13T10:50:38;20.90;64.20
78886;DHT22;68269;52.514;5.722;2023-07-13T10:53:22;20.90;64.20
78886;DHT22;68269;52.514;5.722;2023-07-13T10:55:59;20.90;64.20
78886;DHT22;68269;52.514;5.722;2023-07-13T10:58:34;21.00;64.10
78886;DHT22;68269;52.514;5.722;2023-07-13T11:01:08;21.10;64.00
78886;DHT22;68269;52.514;5.722;2023-07-13T11:03:50;21.10;63.80
78886;DHT22;68269;52.514;5.722;2023-07-13T11:06:34;21.10;63.60
78886;DHT22;68269;52.514;5.722;2023-07-13T11:09:32;21.10;63.30
78886;DHT22;68269;52.514;5.722;2023-07-13T11:12:07;21.10;63.20
78886;DHT22;68269;52.514;5.722;2023-07-13T11:15:00;21.30;63.00
78886;DHT22;68269;52.514;5.722;2023-07-13T11:17:36;21.40;62.80
78886;DHT22;68269;52.514;5.722;2023-07-13T11:20:21;21.50;62.40
78886;DHT22;68269;52.514;5.722;2023-07-13T11:22:52;21.60;61.90
78886;DHT22;68269;52.514;5.722;2023-07-13T11:25:29;21.70;62.00
78886;DHT22;68269;52.514;5.722;2023-07-13T11:28:22;21.70;61.70
78886;DHT22;68269;52.514;5.722;2023-07-13T11:31:03;21.80;61.40
78886;DHT22;68269;52.514;5.722;2023-07-13T11:33:53;21.90;61.40
78886;DHT22;68269;52.514;5.722;2023-07-13T11:36:24;22.00;61.00
78886;DHT22;68269;52.514;5.722;2023-07-13T11:39:00;22.10;61.00
78886;DHT22;68269;52.514;5.722;2023-07-13T11:41:36;22.10;60.80
78886;DHT22;68269;52.514;5.722;2023-07-13T11:44:12;22.20;60.60
78886;DHT22;68269;52.514;5.722;2023-07-13T11:46:46;22.30;60.40
78886;DHT22;68269;52.514;5.722;2023-07-13T11:49:18;22.30;60.20
78886;DHT22;68269;52.514;5.722;2023-07-13T11:51:48;22.20;60.20
78886;DHT22;68269;52.514;5.722;2023-07-13T11:54:22;22.20;60.10
78886;DHT22;68269;52.514;5.722;2023-07-13T11:56:56;22.20;60.30
78886;DHT22;68269;52.514;5.722;2023-07-13T11:59:28;22.20;60.10
78886;DHT22;68269;52.514;5.722;2023-07-13T12:01:59;22.20;60.00
78886;DHT22;68269;52.514;5.722;2023-07-13T12:04:32;22.30;59.70
78886;DHT22;68269;52.514;5.722;2023-07-13T12:07:07;22.30;59.40
78886;DHT22;68269;52.514;5.722;2023-07-13T12:09:36;22.30;59.20
78886;DHT22;68269;52.514;5.722;2023-07-13T12:12:15;22.50;59.10
78886;DHT22;68269;52.514;5.722;2023-07-13T12:14:45;22.50;58.90
78886;DHT22;68269;52.514;5.722;2023-07-13T12:17:18;22.60;58.90
78886;DHT22;68269;52.514;5.722;2023-07-13T12:19:49;22.60;58.70
78886;DHT22;68269;52.514;5.722;2023-07-13T12:22:20;22.70;58.60
78886;DHT22;68269;52.514;5.722;2023-07-13T12:24:49;22.80;58.50
78886;DHT22;68269;52.514;5.722;2023-07-13T12:27:25;22.90;58.20
78886;DHT22;68269;52.514;5.722;2023-07-13T12:29:59;23.00;58.10
78886;DHT22;68269;52.514;5.722;2023-07-13T12:32:29;23.10;58.00
78886;DHT22;68269;52.514;5.722;2023-07-13T12:35:13;23.10;57.90
78886;DHT22;68269;52.514;5.722;2023-07-13T12:37:43;23.10;57.60
78886;DHT22;68269;52.514;5.722;2023-07-13T12:40:14;23.30;57.50
78886;DHT22;68269;52.514;5.722;2023-07-13T12:42:49;23.40;57.20
78886;DHT22;68269;52.514;5.722;2023-07-13T12:45:22;23.50;57.10
78886;DHT22;68269;52.514;5.722;2023-07-13T12:47:54;23.60;56.80
78886;DHT22;68269;52.514;5.722;2023-07-13T12:50:30;23.60;56.60
78886;DHT22;68269;52.514;5.722;2023-07-13T12:53:02;23.70;56.60
78886;DHT22;68269;52.514;5.722;2023-07-13T12:55:41;23.80;56.50
78886;DHT22;68269;52.514;5.722;2023-07-13T12:58:18;23.80;56.20
78886;DHT22;68269;52.514;5.722;2023-07-13T13:00:49;23.90;56.30
78886;DHT22;68269;52.514;5.722;2023-07-13T13:03:25;24.00;56.30
78886;DHT22;68269;52.514;5.722;2023-07-13T13:05:59;24.10;56.20
78886;DHT22;68269;52.514;5.722;2023-07-13T13:08:30;24.20;56.10
78886;DHT22;68269;52.514;5.722;2023-07-13T13:10:59;24.30;56.00
78886;DHT22;68269;52.514;5.722;2023-07-13T13:13:32;24.40;55.90
78886;DHT22;68269;52.514;5.722;2023-07-13T13:16:02;24.40;55.70
78886;DHT22;68269;52.514;5.722;2023-07-13T13:18:32;24.40;55.70
78886;DHT22;68269;52.514;5.722;2023-07-13T13:21:02;24.40;55.60
78886;DHT22;68269;52.514;5.722;2023-07-13T13:23:32;24.50;55.50
78886;DHT22;68269;52.514;5.722;2023-07-13T13:26:02;24.60;55.40
78886;DHT22;68269;52.514;5.722;2023-07-13T13:28:34;24.60;55.30
78886;DHT22;68269;52.514;5.722;2023-07-13T13:31:03;24.70;55.10
78886;DHT22;68269;52.514;5.722;2023-07-13T13:33:33;24.70;55.10
78886;DHT22;68269;52.514;5.722;2023-07-13T13:36:03;24.80;55.10
78886;DHT22;68269;52.514;5.722;2023-07-13T13:38:32;24.90;55.00
78886;DHT22;68269;52.514;5.722;2023-07-13T13:41:02;25.00;54.70
78886;DHT22;68269;52.514;5.722;2023-07-13T13:43:34;25.00;54.70
78886;DHT22;68269;52.514;5.722;2023-07-13T13:46:14;25.00;54.70
78886;DHT22;68269;52.514;5.722;2023-07-13T13:48:44;25.10;54.60
78886;DHT22;68269;52.514;5.722;2023-07-13T13:51:16;25.20;54.60
78886;DHT22;68269;52.514;5.722;2023-07-13T13:53:46;25.20;54.50
78886;DHT22;68269;52.514;5.722;2023-07-13T13:56:18;25.30;54.50
78886;DHT22;68269;52.514;5.722;2023-07-13T13:58:50;25.40;54.30
78886;DHT22;68269;52.514;5.722;2023-07-13T14:01:20;25.50;54.10
78886;DHT22;68269;52.514;5.722;2023-07-13T14:03:51;25.40;54.20
78886;DHT22;68269;52.514;5.722;2023-07-13T14:06:20;25.50;54.20
78886;DHT22;68269;52.514;5.722;2023-07-13T14:08:50;25.60;53.90
78886;DHT22;68269;52.514;5.722;2023-07-13T14:11:21;25.60;53.70
78886;DHT22;68269;52.514;5.722;2023-07-13T14:13:56;25.50;53.70
78886;DHT22;68269;52.514;5.722;2023-07-13T14:16:29;25.50;53.40
78886;DHT22;68269;52.514;5.722;2023-07-13T14:18:59;25.30;53.50
78886;DHT22;68269;52.514;5.722;2023-07-13T14:21:29;25.30;53.50
78886;DHT22;68269;52.514;5.722;2023-07-13T14:23:59;25.30;53.50
78886;DHT22;68269;52.514;5.722;2023-07-13T14:26:29;25.40;53.30
78886;DHT22;68269;52.514;5.722;2023-07-13T14:29:10;25.50;53.10
78886;DHT22;68269;52.514;5.722;2023-07-13T14:31:41;25.60;53.00
78886;DHT22;68269;52.514;5.722;2023-07-13T14:34:10;25.60;53.10
78886;DHT22;68269;52.514;5.722;2023-07-13T14:36:42;25.80;52.80
78886;DHT22;68269;52.514;5.722;2023-07-13T14:39:14;25.90;52.70
78886;DHT22;68269;52.514;5.722;2023-07-13T14:41:44;26.00;52.60
78886;DHT22;68269;52.514;5.722;2023-07-13T14:44:20;26.00;52.70
78886;DHT22;68269;52.514;5.722;2023-07-13T14:46:50;26.10;52.80
78886;DHT22;68269;52.514;5.722;2023-07-13T14:49:24;26.30;52.60
78886;DHT22;68269;52.514;5.722;2023-07-13T14:51:55;26.30;52.60
78886;DHT22;68269;52.514;5.722;2023-07-13T14:54:25;26.20;52.60
78886;DHT22;68269;52.514;5.722;2023-07-13T14:56:54;26.10;52.40
78886;DHT22;68269;52.514;5.722;2023-07-13T14:59:26;26.10;52.40
78886;DHT22;68269;52.514;5.722;2023-07-13T15:01:56;26.20;52.20
78886;DHT22;68269;52.514;5.722;2023-07-13T15:04:25;26.30;52.20
78886;DHT22;68269;52.514;5.722;2023-07-13T15:06:56;26.40;52.00
78886;DHT22;68269;52.514;5.722;2023-07-13T15:09:26;26.30;51.90
78886;DHT22;68269;52.514;5.722;2023-07-13T15:11:56;26.20;52.00
78886;DHT22;68269;52.514;5.722;2023-07-13T15:14:29;26.20;52.00
78886;DHT22;68269;52.514;5.722;2023-07-13T15:16:58;26.10;51.90
78886;DHT22;68269;52.514;5.722;2023-07-13T15:19:29;26.00;52.00
78886;DHT22;68269;52.514;5.722;2023-07-13T15:21:58;26.00;51.90
78886;DHT22;68269;52.514;5.722;2023-07-13T15:24:29;26.00;51.90
78886;DHT22;68269;52.514;5.722;2023-07-13T15:26:58;26.00;51.90
78886;DHT22;68269;52.514;5.722;2023-07-13T15:29:30;26.00;52.00
78886;DHT22;68269;52.514;5.722;2023-07-13T15:32:00;26.00;51.90
78886;DHT22;68269;52.514;5.722;2023-07-13T15:34:30;25.90;51.90
78886;DHT22;68269;52.514;5.722;2023-07-13T15:36:59;25.80;52.10
78886;DHT22;68269;52.514;5.722;2023-07-13T15:39:28;25.90;52.10
78886;DHT22;68269;52.514;5.722;2023-07-13T15:41:58;26.00;52.10
78886;DHT22;68269;52.514;5.722;2023-07-13T15:44:31;26.00;52.10
78886;DHT22;68269;52.514;5.722;2023-07-13T15:47:01;26.00;52.10
78886;DHT22;68269;52.514;5.722;2023-07-13T15:49:30;25.90;52.10
78886;DHT22;68269;52.514;5.722;2023-07-13T15:51:59;25.80;52.20
78886;DHT22;68269;52.514;5.722;2023-07-13T15:54:29;25.60;52.30
78886;DHT22;68269;52.514;5.722;2023-07-13T15:57:01;25.60;52.20
78886;DHT22;68269;52.514;5.722;2023-07-13T15:59:33;25.60;52.10
78886;DHT22;68269;52.514;5.722;2023-07-13T16:02:12;25.60;51.90